Time;durP1;ratioP1;P1;durP2;ratioP2;P2;SDS_P1;SDS_P2;PMS_P1;PMS_P2;Temp;Humidity;BMP_temperature;BMP_pressure;BME280_temperature;BME280_humidity;BME280_pressure;Samples;Min_cycle;Max_cycle;Signal;HPM_P1;HPM_P2
2021/11/23 00:01:15;;;;;;;6.20;5.60;;;;;;;;;;4972131;28;20097;-66
2021/11/23 00:03:42;;;;;;;9.20;6.28;;;;;;;;;;4976204;28;20058;-66
2021/11/23 00:06:09;;;;;;;8.07;6.32;;;;;;;;;;4976207;28;20062;-66
2021/11/23 00:08:35;;;;;;;10.27;6.32;;;;;;;;;;4976301;28;20051;-66
2021/11/23 00:11:02;;;;;;;9.35;6.88;;;;;;;;;;4975786;28;20502;-66
2021/11/23 00:13:29;;;;;;;7.60;6.47;;;;;;;;;;4975879;28;20070;-66
2021/11/23 00:15:55;;;;;;;10.48;6.93;;;;;;;;;;4976182;28;20055;-66
2021/11/23 00:18:22;;;;;;;9.77;7.30;;;;;;;;;;4975947;28;20051;-66
2021/11/23 00:20:49;;;;;;;8.75;6.80;;;;;;;;;;4976211;28;20129;-66
2021/11/23 00:23:16;;;;;;;9.77;6.50;;;;;;;;;;4975908;28;20050;-66
2021/11/23 00:25:43;;;;;;;7.00;5.72;;;;;;;;;;4959139;28;20058;-66
2021/11/23 00:28:11;;;;;;;7.57;6.38;;;;;;;;;;4975758;28;20051;-66
2021/11/23 00:30:38;;;;;;;7.82;6.28;;;;;;;;;;4976222;28;20078;-67
2021/11/23 00:33:05;;;;;;;10.57;7.47;;;;;;;;;;4975669;28;20067;-66
2021/11/23 00:35:32;;;;;;;12.88;7.93;;;;;;;;;;4973989;28;20425;-66
2021/11/23 00:37:59;;;;;;;31.02;14.38;;;;;;;;;;4956301;29;20055;-66
2021/11/23 00:40:26;;;;;;;18.85;10.10;;;;;;;;;;4956428;29;20561;-66
2021/11/23 00:42:52;;;;;;;10.25;7.85;;;;;;;;;;4956368;29;20105;-67
2021/11/23 00:45:19;;;;;;;7.82;6.93;;;;;;;;;;4956255;29;20078;-66
2021/11/23 00:47:46;;;;;;;8.68;7.00;;;;;;;;;;4959435;28;20058;-66
2021/11/23 00:50:13;;;;;;;11.63;6.60;;;;;;;;;;4975246;28;20510;-66
2021/11/23 00:52:40;;;;;;;8.07;6.55;;;;;;;;;;4975780;28;20101;-66
2021/11/23 00:55:07;;;;;;;8.23;6.55;;;;;;;;;;4975503;28;20433;-66
2021/11/23 00:57:34;;;;;;;8.68;6.25;;;;;;;;;;4975563;28;20082;-66
2021/11/23 01:00:02;;;;;;;8.00;6.65;;;;;;;;;;4975552;28;20055;-66
2021/11/23 01:02:29;;;;;;;7.45;6.10;;;;;;;;;;4975136;28;20051;-66
2021/11/23 01:04:56;;;;;;;9.60;7.05;;;;;;;;;;4975313;28;20054;-66
2021/11/23 01:07:22;;;;;;;7.97;6.82;;;;;;;;;;4975197;28;20050;-66
2021/11/23 01:09:49;;;;;;;7.55;6.55;;;;;;;;;;4960791;28;20576;-66
2021/11/23 01:12:16;;;;;;;7.55;6.32;;;;;;;;;;4955420;29;20043;-66
2021/11/23 01:14:43;;;;;;;9.18;6.65;;;;;;;;;;4954993;28;20403;-66
2021/11/23 01:17:14;;;;;;;10.35;7.13;;;;;;;;;;4955651;29;20051;-66
2021/11/23 01:19:42;;;;;;;14.90;9.68;;;;;;;;;;4955791;29;20102;-66
2021/11/23 01:22:09;;;;;;;12.57;9.18;;;;;;;;;;4955372;29;20050;-66
2021/11/23 01:24:36;;;;;;;8.57;7.47;;;;;;;;;;4955818;29;20055;-66
2021/11/23 01:27:02;;;;;;;12.00;9.18;;;;;;;;;;4955560;29;20051;-66
2021/11/23 01:29:29;;;;;;;9.15;7.20;;;;;;;;;;4938520;29;20411;-66
2021/11/23 01:31:56;;;;;;;10.07;7.63;;;;;;;;;;4955386;29;20047;-66
2021/11/23 01:34:22;;;;;;;9.68;7.28;;;;;;;;;;4955370;29;20055;-66
2021/11/23 01:36:52;;;;;;;10.43;7.70;;;;;;;;;;4955613;29;20203;-66
2021/11/23 01:39:19;;;;;;;13.13;8.20;;;;;;;;;;4955043;29;20051;-66
2021/11/23 01:41:45;;;;;;;12.98;9.35;;;;;;;;;;4955071;29;20051;-66
2021/11/23 01:44:12;;;;;;;12.98;8.65;;;;;;;;;;4971877;28;20055;-66
2021/11/23 01:46:38;;;;;;;12.75;9.02;;;;;;;;;;4974581;28;20050;-66
2021/11/23 01:49:05;;;;;;;11.55;9.05;;;;;;;;;;4973585;28;20447;-68
2021/11/23 01:51:32;;;;;;;10.77;8.18;;;;;;;;;;4974214;28;20043;-68
2021/11/23 01:53:58;;;;;;;12.02;8.80;;;;;;;;;;4957223;28;20054;-68
2021/11/23 01:56:25;;;;;;;12.85;8.65;;;;;;;;;;4974488;28;20059;-68
2021/11/23 01:58:52;;;;;;;11.05;8.43;;;;;;;;;;4957550;28;20105;-69
2021/11/23 02:01:19;;;;;;;11.68;8.57;;;;;;;;;;4974119;28;20074;-68
2021/11/23 02:03:46;;;;;;;12.25;8.52;;;;;;;;;;4974409;28;20058;-68
2021/11/23 02:06:12;;;;;;;9.63;7.97;;;;;;;;;;4971402;28;20114;-68
2021/11/23 02:08:39;;;;;;;11.45;9.15;;;;;;;;;;4974394;28;20055;-68
2021/11/23 02:11:06;;;;;;;10.25;8.75;;;;;;;;;;4973948;28;20047;-68
2021/11/23 02:13:33;;;;;;;12.50;9.70;;;;;;;;;;4974202;28;20050;-68
2021/11/23 02:15:59;;;;;;;12.90;9.90;;;;;;;;;;4974056;28;20098;-68
2021/11/23 02:18:27;;;;;;;12.02;9.40;;;;;;;;;;4973632;28;20097;-68
2021/11/23 02:20:54;;;;;;;12.20;8.68;;;;;;;;;;4973854;28;20055;-68
2021/11/23 02:23:21;;;;;;;11.93;9.18;;;;;;;;;;4956765;28;20046;-68
2021/11/23 02:25:48;;;;;;;12.15;9.45;;;;;;;;;;4973816;28;20058;-68
2021/11/23 02:28:16;;;;;;;11.15;9.30;;;;;;;;;;4973851;28;20510;-68
2021/11/23 02:30:52;;;;;;;12.48;10.32;;;;;;;;;;4965631;28;20490;-68
2021/11/23 02:33:21;;;;;;;12.10;9.63;;;;;;;;;;4954429;29;20486;-68
2021/11/23 02:35:49;;;;;;;11.32;8.98;;;;;;;;;;4954637;29;20059;-69
2021/11/23 02:38:20;;;;;;;10.48;8.48;;;;;;;;;;4954195;29;20110;-69
2021/11/23 02:40:47;;;;;;;11.38;8.80;;;;;;;;;;4954442;29;20111;-68
2021/11/23 02:43:13;;;;;;;11.32;8.98;;;;;;;;;;4962507;28;20093;-68
2021/11/23 02:45:40;;;;;;;12.20;9.70;;;;;;;;;;4956468;28;20050;-68
2021/11/23 02:48:09;;;;;;;12.05;9.07;;;;;;;;;;4973423;28;20469;-68
2021/11/23 02:50:37;;;;;;;12.75;9.82;;;;;;;;;;4973462;28;20068;-68
2021/11/23 02:53:04;;;;;;;14.48;10.13;;;;;;;;;;4966676;28;20047;-68
2021/11/23 02:55:33;;;;;;;16.88;9.98;;;;;;;;;;4937322;29;20055;-68
2021/11/23 02:58:01;;;;;;;12.05;9.55;;;;;;;;;;4954341;29;20106;-68
2021/11/23 03:00:28;;;;;;;10.95;8.75;;;;;;;;;;4953861;29;20564;-68
2021/11/23 03:02:55;;;;;;;11.02;9.18;;;;;;;;;;4957986;28;20050;-68
2021/11/23 03:05:23;;;;;;;11.48;9.13;;;;;;;;;;4953904;29;20510;-68
2021/11/23 03:07:51;;;;;;;13.40;9.55;;;;;;;;;;4954138;29;20111;-68
2021/11/23 03:10:23;;;;;;;14.70;9.88;;;;;;;;;;4937507;29;20055;-68
2021/11/23 03:12:51;;;;;;;10.68;8.95;;;;;;;;;;4941252;28;20051;-68
2021/11/23 03:15:19;;;;;;;13.65;9.75;;;;;;;;;;4973040;28;20055;-68
2021/11/23 03:17:45;;;;;;;14.40;9.88;;;;;;;;;;4973194;28;20054;-68
2021/11/23 03:20:14;;;;;;;11.98;9.75;;;;;;;;;;4973058;28;20055;-68
2021/11/23 03:22:41;;;;;;;11.20;8.52;;;;;;;;;;4972930;28;20043;-68
2021/11/23 03:25:08;;;;;;;14.40;9.65;;;;;;;;;;4973098;28;20046;-68
2021/11/23 03:27:35;;;;;;;11.02;9.07;;;;;;;;;;4972984;28;20487;-68
2021/11/23 03:30:04;;;;;;;11.23;9.07;;;;;;;;;;4972955;28;20105;-68
2021/11/23 03:32:30;;;;;;;11.82;9.10;;;;;;;;;;4971097;28;20050;-68
2021/11/23 03:34:57;;;;;;;14.25;9.18;;;;;;;;;;4953754;29;20490;-68
2021/11/23 03:37:25;;;;;;;11.25;9.10;;;;;;;;;;4956981;28;20498;-68
2021/11/23 03:39:53;;;;;;;12.60;9.27;;;;;;;;;;4959857;29;20200;-68
2021/11/23 03:42:20;;;;;;;11.10;9.02;;;;;;;;;;4959624;29;20047;-68
2021/11/23 03:44:47;;;;;;;11.27;8.93;;;;;;;;;;4978431;28;20054;-68
2021/11/23 03:47:15;;;;;;;12.02;9.00;;;;;;;;;;4979042;28;20046;-68
2021/11/23 03:49:44;;;;;;;12.13;8.90;;;;;;;;;;4979175;28;20051;-68
2021/11/23 03:52:11;;;;;;;10.25;8.75;;;;;;;;;;4979093;28;20395;-68
2021/11/23 03:54:37;;;;;;;11.63;9.55;;;;;;;;;;4962333;28;20054;-68
2021/11/23 03:57:04;;;;;;;14.50;10.02;;;;;;;;;;4959940;29;20047;-68
2021/11/23 03:59:31;;;;;;;13.13;10.20;;;;;;;;;;4959644;29;20554;-68
2021/11/23 04:01:57;;;;;;;14.25;10.25;;;;;;;;;;4959718;28;20051;-68
2021/11/23 04:04:24;;;;;;;12.10;9.38;;;;;;;;;;4959596;28;20065;-68
2021/11/23 04:06:53;;;;;;;12.55;9.52;;;;;;;;;;4959773;28;20058;-68
2021/11/23 04:09:19;;;;;;;10.75;8.95;;;;;;;;;;4959561;29;20055;-68
2021/11/23 04:11:46;;;;;;;14.27;9.88;;;;;;;;;;4959659;29;20070;-68
2021/11/23 04:14:13;;;;;;;13.70;10.48;;;;;;;;;;4972939;28;20051;-68
2021/11/23 04:16:39;;;;;;;14.75;11.45;;;;;;;;;;4979063;28;20054;-68
2021/11/23 04:19:06;;;;;;;14.77;10.55;;;;;;;;;;4979129;28;20058;-68
2021/11/23 04:21:32;;;;;;;14.57;10.10;;;;;;;;;;4978758;28;20051;-68
2021/11/23 04:23:59;;;;;;;14.75;11.43;;;;;;;;;;4979064;28;20051;-68
2021/11/23 04:26:26;;;;;;;15.75;11.00;;;;;;;;;;4978848;28;20115;-68
2021/11/23 04:28:52;;;;;;;17.67;12.15;;;;;;;;;;4978994;28;20469;-68
2021/11/23 04:31:19;;;;;;;14.38;10.95;;;;;;;;;;4978612;28;20051;-68
2021/11/23 04:33:45;;;;;;;16.27;10.90;;;;;;;;;;4974358;28;20098;-68
2021/11/23 04:36:12;;;;;;;15.40;11.20;;;;;;;;;;4978638;28;20046;-68
2021/11/23 04:38:39;;;;;;;17.40;12.13;;;;;;;;;;5006462;23;20042;-65
2021/11/23 04:41:05;;;;;;;17.92;12.13;;;;;;;;;;5017853;28;20467;-66
2021/11/23 04:43:32;;;;;;;14.98;11.73;;;;;;;;;;5017860;28;20053;-67
2021/11/23 04:45:58;;;;;;;16.52;12.20;;;;;;;;;;5018063;28;20049;-67
2021/11/23 04:48:25;;;;;;;16.10;12.27;;;;;;;;;;5016482;28;20057;-65
2021/11/23 04:50:52;;;;;;;16.05;11.77;;;;;;;;;;5014873;28;20064;-66
2021/11/23 04:53:19;;;;;;;15.75;11.50;;;;;;;;;;5014607;28;20096;-64
2021/11/23 04:55:46;;;;;;;15.85;11.52;;;;;;;;;;5014879;28;20054;-65
2021/11/23 04:58:12;;;;;;;15.55;11.50;;;;;;;;;;5014521;28;20046;-65
2021/11/23 05:00:39;;;;;;;15.55;10.98;;;;;;;;;;5014566;28;20076;-66
2021/11/23 05:03:06;;;;;;;15.77;11.68;;;;;;;;;;5011147;28;20048;-65
2021/11/23 05:05:32;;;;;;;16.98;12.43;;;;;;;;;;4995027;28;20100;-65
2021/11/23 05:08:00;;;;;;;15.32;10.93;;;;;;;;;;4995054;28;20104;-67
2021/11/23 05:10:27;;;;;;;16.92;12.52;;;;;;;;;;4994719;28;20132;-65
2021/11/23 05:12:53;;;;;;;15.65;11.15;;;;;;;;;;4995516;28;20050;-66
2021/11/23 05:15:20;;;;;;;16.42;11.95;;;;;;;;;;5014260;28;20467;-66
2021/11/23 05:17:46;;;;;;;15.73;12.32;;;;;;;;;;5014155;28;20046;-66
2021/11/23 05:20:13;;;;;;;17.58;12.40;;;;;;;;;;5014233;28;20080;-66
2021/11/23 05:22:40;;;;;;;18.23;12.00;;;;;;;;;;5014020;28;20043;-64
2021/11/23 05:25:07;;;;;;;16.92;11.95;;;;;;;;;;5014363;28;20053;-66
2021/11/23 05:27:34;;;;;;;18.15;12.15;;;;;;;;;;5014059;28;20570;-65
2021/11/23 05:30:02;;;;;;;17.67;12.57;;;;;;;;;;5013929;28;20497;-66
2021/11/23 05:32:28;;;;;;;16.80;12.00;;;;;;;;;;5014084;28;20046;-66
2021/11/23 05:34:55;;;;;;;18.10;12.63;;;;;;;;;;4996995;28;20047;-66
2021/11/23 05:37:22;;;;;;;17.27;11.75;;;;;;;;;;4994472;28;20619;-65
2021/11/23 05:39:48;;;;;;;17.10;12.90;;;;;;;;;;4994279;28;20046;-65
2021/11/23 05:42:15;;;;;;;18.17;12.38;;;;;;;;;;4993904;28;20050;-65
2021/11/23 05:44:42;;;;;;;17.95;12.38;;;;;;;;;;5009156;28;20053;-66
2021/11/23 05:47:09;;;;;;;18.40;13.15;;;;;;;;;;5013830;28;20463;-65
2021/11/23 05:49:36;;;;;;;18.02;13.63;;;;;;;;;;5013603;28;20108;-66
2021/11/23 05:52:03;;;;;;;19.10;13.23;;;;;;;;;;5013555;28;20108;-65
2021/11/23 05:54:30;;;;;;;18.48;13.52;;;;;;;;;;5013470;28;20057;-66
2021/11/23 05:56:57;;;;;;;19.80;13.75;;;;;;;;;;5013680;28;20403;-66
2021/11/23 05:59:23;;;;;;;18.15;12.50;;;;;;;;;;5013038;28;20112;-65
2021/11/23 06:01:50;;;;;;;21.10;13.13;;;;;;;;;;4996563;28;20054;-67
2021/11/23 06:04:17;;;;;;;18.40;13.45;;;;;;;;;;4993663;28;20101;-65
2021/11/23 06:06:43;;;;;;;19.40;12.73;;;;;;;;;;4993872;28;20457;-66
2021/11/23 06:09:10;;;;;;;20.80;14.13;;;;;;;;;;4993790;28;20050;-66
2021/11/23 06:11:37;;;;;;;18.88;13.35;;;;;;;;;;4993378;28;20050;-66
2021/11/23 06:14:04;;;;;;;19.15;13.55;;;;;;;;;;4993862;28;20042;-66
2021/11/23 06:16:32;;;;;;;21.13;13.43;;;;;;;;;;4993569;28;20046;-66
2021/11/23 06:18:59;;;;;;;19.13;12.98;;;;;;;;;;4993555;28;20051;-65
2021/11/23 06:21:26;;;;;;;17.55;13.18;;;;;;;;;;5002395;28;20420;-64
2021/11/23 06:23:53;;;;;;;17.98;12.85;;;;;;;;;;5012925;28;20497;-66
2021/11/23 06:26:20;;;;;;;21.55;13.23;;;;;;;;;;4995581;28;20112;-66
2021/11/23 06:28:47;;;;;;;20.77;13.90;;;;;;;;;;5012924;28;20054;-65
2021/11/23 06:31:14;;;;;;;18.45;13.23;;;;;;;;;;5011008;28;20050;-65
2021/11/23 06:33:41;;;;;;;19.33;13.52;;;;;;;;;;5011084;28;20109;-65
2021/11/23 06:36:08;;;;;;;18.60;13.13;;;;;;;;;;5011131;28;20072;-65
2021/11/23 06:38:34;;;;;;;21.50;13.15;;;;;;;;;;5010642;28;20471;-65
2021/11/23 06:41:01;;;;;;;20.70;14.00;;;;;;;;;;5010224;28;20045;-65
2021/11/23 06:43:27;;;;;;;18.38;13.32;;;;;;;;;;5010700;28;20115;-64
2021/11/23 06:45:55;;;;;;;19.17;13.80;;;;;;;;;;5010517;28;20081;-64
2021/11/23 06:48:22;;;;;;;21.15;14.20;;;;;;;;;;5010611;28;20060;-63
2021/11/23 06:50:49;;;;;;;20.17;14.07;;;;;;;;;;5003079;28;20464;-65
2021/11/23 06:53:16;;;;;;;25.42;15.40;;;;;;;;;;4990903;28;20097;-65
2021/11/23 06:55:43;;;;;;;25.23;14.73;;;;;;;;;;4991257;28;20476;-64
2021/11/23 06:58:10;;;;;;;24.13;15.52;;;;;;;;;;4990530;28;20104;-64
2021/11/23 07:00:39;;;;;;;22.58;14.50;;;;;;;;;;4991056;28;20050;-65
2021/11/23 07:03:06;;;;;;;23.70;14.38;;;;;;;;;;4974106;28;20421;-64
2021/11/23 07:05:33;;;;;;;21.05;14.23;;;;;;;;;;4991932;28;20061;-64
2021/11/23 07:08:19;;;;;;;23.35;13.95;;;;;;;;;;4992830;28;20482;-64
2021/11/23 07:10:46;;;;;;;22.75;14.82;;;;;;;;;;4992739;28;20517;-65
2021/11/23 07:13:12;;;;;;;20.92;14.35;;;;;;;;;;4991774;28;20050;-63
2021/11/23 07:15:39;;;;;;;28.95;14.60;;;;;;;;;;4992466;28;20054;-63
2021/11/23 07:18:06;;;;;;;21.23;15.13;;;;;;;;;;4992516;28;20051;-64
2021/11/23 07:20:32;;;;;;;23.55;14.45;;;;;;;;;;4992227;28;20058;-68
2021/11/23 07:22:59;;;;;;;24.25;15.23;;;;;;;;;;5006057;28;20147;-65
2021/11/23 07:25:26;;;;;;;21.55;15.00;;;;;;;;;;5011975;28;20394;-65
2021/11/23 07:27:52;;;;;;;22.38;14.90;;;;;;;;;;5012111;28;20111;-67
2021/11/23 07:30:19;;;;;;;32.33;16.85;;;;;;;;;;5004603;28;20046;-65
2021/11/23 07:32:46;;;;;;;26.50;16.95;;;;;;;;;;4990667;28;20065;-68
2021/11/23 07:35:15;;;;;;;26.38;16.77;;;;;;;;;;5014307;28;20057;-70
2021/11/23 07:37:41;;;;;;;25.08;16.83;;;;;;;;;;5011591;28;20050;-69
2021/11/23 07:40:10;;;;;;;23.23;16.08;;;;;;;;;;5010695;28;20555;-65
2021/11/23 07:42:37;;;;;;;26.20;17.20;;;;;;;;;;5011130;28;20377;-64
2021/11/23 07:45:07;;;;;;;27.10;17.55;;;;;;;;;;5011762;28;20060;-65
2021/11/23 07:47:37;;;;;;;27.35;17.85;;;;;;;;;;5011163;28;20104;-65
2021/11/23 07:50:04;;;;;;;28.35;18.33;;;;;;;;;;5011511;28;20177;-64
2021/11/23 07:52:31;;;;;;;24.40;17.13;;;;;;;;;;5010724;28;20487;-65
2021/11/23 07:54:58;;;;;;;24.33;16.30;;;;;;;;;;5011884;28;20050;-65
2021/11/23 07:57:25;;;;;;;24.98;16.08;;;;;;;;;;5011663;28;20050;-65
2021/11/23 07:59:51;;;;;;;22.88;15.27;;;;;;;;;;5011655;28;20260;-65
2021/11/23 08:02:18;;;;;;;22.55;14.68;;;;;;;;;;5011402;28;20073;-65
2021/11/23 08:04:45;;;;;;;20.73;14.35;;;;;;;;;;5011805;28;20056;-65
2021/11/23 08:07:11;;;;;;;21.60;14.63;;;;;;;;;;5011564;28;20053;-64
2021/11/23 08:09:38;;;;;;;18.95;13.52;;;;;;;;;;5011334;28;20093;-65
2021/11/23 08:12:05;;;;;;;18.27;13.40;;;;;;;;;;5011413;28;20053;-65
2021/11/23 08:14:32;;;;;;;19.60;14.35;;;;;;;;;;5011387;28;20103;-65
2021/11/23 08:16:59;;;;;;;20.50;14.07;;;;;;;;;;5011610;28;20524;-65
2021/11/23 08:19:25;;;;;;;18.15;13.60;;;;;;;;;;5011260;28;20056;-65
2021/11/23 08:21:52;;;;;;;23.90;15.27;;;;;;;;;;5011271;28;20116;-65
2021/11/23 08:24:19;;;;;;;19.23;13.82;;;;;;;;;;5014203;28;20041;-65
2021/11/23 08:26:45;;;;;;;18.92;13.13;;;;;;;;;;5015321;28;20057;-65
2021/11/23 08:29:12;;;;;;;17.05;12.93;;;;;;;;;;5014967;28;20058;-65
2021/11/23 08:31:38;;;;;;;20.98;15.05;;;;;;;;;;5014858;28;20111;-65
2021/11/23 08:34:05;;;;;;;18.25;13.15;;;;;;;;;;5015115;28;20096;-65
2021/11/23 08:36:33;;;;;;;19.95;13.68;;;;;;;;;;5014940;28;20050;-65
2021/11/23 08:39:01;;;;;;;17.23;13.13;;;;;;;;;;5014981;28;20072;-65
2021/11/23 08:41:27;;;;;;;19.63;13.75;;;;;;;;;;5014653;28;20555;-65
2021/11/23 08:43:54;;;;;;;21.63;13.90;;;;;;;;;;5014622;28;20049;-65
2021/11/23 08:46:20;;;;;;;17.65;12.52;;;;;;;;;;5014651;28;20046;-65
2021/11/23 08:48:48;;;;;;;20.58;14.00;;;;;;;;;;5014791;28;20057;-65
2021/11/23 08:51:18;;;;;;;21.27;14.70;;;;;;;;;;5014275;28;20057;-64
2021/11/23 08:53:45;;;;;;;20.83;14.50;;;;;;;;;;5016383;28;20046;-65
2021/11/23 08:56:11;;;;;;;18.92;14.13;;;;;;;;;;5014660;28;20053;-65
2021/11/23 08:58:38;;;;;;;18.77;12.90;;;;;;;;;;5014459;28;20104;-65
2021/11/23 09:01:05;;;;;;;18.48;12.98;;;;;;;;;;5014597;28;20459;-65
2021/11/23 09:03:32;;;;;;;19.83;13.43;;;;;;;;;;4997100;28;20046;-65
2021/11/23 09:06:00;;;;;;;18.70;12.70;;;;;;;;;;5014146;28;20081;-65
2021/11/23 09:08:26;;;;;;;19.63;12.23;;;;;;;;;;5014223;28;20053;-65
2021/11/23 09:10:53;;;;;;;19.13;11.95;;;;;;;;;;5014092;28;20528;-65
2021/11/23 09:13:21;;;;;;;15.18;11.65;;;;;;;;;;5014308;28;20096;-65
2021/11/23 09:15:47;;;;;;;20.60;11.90;;;;;;;;;;5014338;28;20046;-65
2021/11/23 09:18:14;;;;;;;17.40;12.25;;;;;;;;;;5014144;28;20049;-65
2021/11/23 09:20:41;;;;;;;16.85;11.55;;;;;;;;;;5013967;28;20104;-65
2021/11/23 09:23:10;;;;;;;14.35;10.50;;;;;;;;;;5013952;28;20104;-65
2021/11/23 09:25:39;;;;;;;16.42;11.43;;;;;;;;;;5013979;28;20052;-65
2021/11/23 09:28:06;;;;;;;14.52;11.07;;;;;;;;;;5014106;28;20465;-65
2021/11/23 09:30:34;;;;;;;17.00;11.60;;;;;;;;;;5013021;28;20050;-65
2021/11/23 09:33:01;;;;;;;13.98;10.30;;;;;;;;;;5013901;28;20053;-65
2021/11/23 09:35:28;;;;;;;13.88;10.38;;;;;;;;;;5013043;28;20096;-65
2021/11/23 09:37:56;;;;;;;13.70;10.60;;;;;;;;;;5013677;28;20054;-65
2021/11/23 09:40:23;;;;;;;13.73;11.05;;;;;;;;;;5013617;28;20054;-65
2021/11/23 09:42:50;;;;;;;13.10;9.77;;;;;;;;;;5013700;28;20049;-65
2021/11/23 09:45:17;;;;;;;15.50;9.60;;;;;;;;;;5013866;28;20100;-65
2021/11/23 09:47:44;;;;;;;12.05;9.43;;;;;;;;;;5013487;28;20568;-65
2021/11/23 09:50:11;;;;;;;11.75;9.00;;;;;;;;;;5013336;28;20054;-65
2021/11/23 09:52:37;;;;;;;11.88;8.70;;;;;;;;;;5013350;28;20513;-65
2021/11/23 09:55:06;;;;;;;12.07;9.18;;;;;;;;;;4994942;28;20109;-65
2021/11/23 09:57:33;;;;;;;9.90;8.52;;;;;;;;;;4976676;28;20054;-65
2021/11/23 10:00:00;;;;;;;11.55;9.20;;;;;;;;;;4993816;28;20054;-65
2021/11/23 10:02:29;;;;;;;12.05;8.93;;;;;;;;;;4993492;28;20047;-65
2021/11/23 10:05:06;;;;;;;11.77;8.43;;;;;;;;;;4993732;28;20046;-65
2021/11/23 10:07:40;;;;;;;12.73;8.18;;;;;;;;;;4993850;28;20052;-65
2021/11/23 10:10:21;;;;;;;9.95;7.38;;;;;;;;;;4993662;28;20093;-65
2021/11/23 10:12:58;;;;;;;9.25;7.28;;;;;;;;;;4993512;28;20124;-65
2021/11/23 10:15:27;;;;;;;9.57;7.68;;;;;;;;;;4993612;28;20088;-65
2021/11/23 10:18:05;;;;;;;10.35;7.30;;;;;;;;;;4999344;28;20120;-65
2021/11/23 10:20:34;;;;;;;10.02;7.50;;;;;;;;;;5013259;28;20050;-65
2021/11/23 10:23:31;;;;;;;9.18;7.50;;;;;;;;;;5012881;28;20238;-65
2021/11/23 10:26:18;;;;;;;11.82;7.15;;;;;;;;;;5012790;28;20081;-65
2021/11/23 10:28:50;;;;;;;8.50;7.03;;;;;;;;;;5012804;28;20054;-65
2021/11/23 10:31:17;;;;;;;10.07;6.78;;;;;;;;;;5012504;28;20095;-65
2021/11/23 10:33:43;;;;;;;8.15;7.20;;;;;;;;;;5012556;28;20050;-65
2021/11/23 10:36:15;;;;;;;9.02;7.50;;;;;;;;;;5012769;28;20501;-65
2021/11/23 10:41:18;;;;;;;8.15;6.75;;;;;;;;;;4970146;28;20047;-64
2021/11/23 10:43:45;;;;;;;9.88;8.05;;;;;;;;;;4973651;28;20101;-65
2021/11/23 10:46:17;;;;;;;8.88;6.90;;;;;;;;;;4973596;28;20046;-65
2021/11/23 10:48:54;;;;;;;9.45;8.20;;;;;;;;;;4973734;28;20050;-65
2021/11/23 10:51:21;;;;;;;9.13;7.25;;;;;;;;;;4973500;28;20050;-65
2021/11/23 10:53:48;;;;;;;10.30;7.72;;;;;;;;;;4973221;28;20050;-64
2021/11/23 10:56:18;;;;;;;8.55;7.28;;;;;;;;;;4973454;28;20054;-65
2021/11/23 10:58:47;;;;;;;8.70;7.40;;;;;;;;;;4973500;28;20059;-65
2021/11/23 11:01:15;;;;;;;7.68;6.78;;;;;;;;;;4973282;28;20086;-65
2021/11/23 11:03:42;;;;;;;10.23;6.93;;;;;;;;;;4973301;28;20417;-65
2021/11/23 11:06:10;;;;;;;11.40;6.60;;;;;;;;;;4973362;28;20054;-65
2021/11/23 11:08:45;;;;;;;8.65;6.60;;;;;;;;;;4964029;28;20561;-64
2021/11/23 11:11:17;;;;;;;9.00;7.50;;;;;;;;;;4953742;29;20078;-64
2021/11/23 11:13:52;;;;;;;10.85;6.85;;;;;;;;;;4937619;29;20098;-64
2021/11/23 11:16:20;;;;;;;10.15;6.57;;;;;;;;;;4921425;29;20106;-64
2021/11/23 11:19:07;;;;;;;7.65;6.28;;;;;;;;;;4932751;28;20055;-64
2021/11/23 11:21:41;;;;;;;7.28;6.15;;;;;;;;;;4973019;28;20329;-64
2021/11/23 11:27:14;;;;;;;7.38;6.45;;;;;;;;;;4974977;28;20047;-65
2021/11/23 11:29:41;;;;;;;6.95;5.43;;;;;;;;;;4973121;28;20057;-65
2021/11/23 11:32:35;;;;;;;5.80;5.20;;;;;;;;;;4972603;28;20058;-66
2021/11/23 11:35:25;;;;;;;;;;;;;;;;;;4965599;28;20051;-67
2021/11/23 11:37:59;;;;;;;5.55;4.63;;;;;;;;;;4972909;28;19956;-67
2021/11/23 11:40:27;;;;;;;6.43;4.57;;;;;;;;;;4969437;28;20058;-66
2021/11/23 11:42:59;;;;;;;4.90;4.28;;;;;;;;;;4964795;28;20124;-66
2021/11/23 11:45:37;;;;;;;5.07;4.60;;;;;;;;;;4962315;28;20437;-67
2021/11/23 11:48:42;;;;;;;6.25;5.40;;;;;;;;;;4962634;28;20117;-69
2021/11/23 11:51:11;;;;;;;5.88;5.28;;;;;;;;;;4961972;28;20046;-69
2021/11/23 11:53:46;;;;;;;6.07;4.90;;;;;;;;;;4958049;28;20122;-72
2021/11/23 11:56:20;;;;;;;5.72;5.10;;;;;;;;;;4960182;28;20055;-71
2021/11/23 11:58:57;;;;;;;6.10;4.40;;;;;;;;;;4934366;28;20051;-68
2021/11/23 12:01:34;;;;;;;5.18;4.78;;;;;;;;;;4963635;28;20063;-72
2021/11/23 12:04:14;;;;;;;4.80;4.30;;;;;;;;;;4961613;28;20110;-70
2021/11/23 12:06:53;;;;;;;5.78;4.28;;;;;;;;;;4964793;28;20498;-66
2021/11/23 12:09:26;;;;;;;5.70;4.00;;;;;;;;;;4963379;28;20098;-65
2021/11/23 12:11:54;;;;;;;4.03;3.60;;;;;;;;;;4959920;28;20117;-65
2021/11/23 12:14:23;;;;;;;3.70;3.40;;;;;;;;;;4961503;28;20105;-65
2021/11/23 12:16:57;;;;;;;4.40;3.03;;;;;;;;;;4960071;28;20051;-64
2021/11/23 12:19:49;;;;;;;4.55;3.75;;;;;;;;;;4949575;28;20082;-64
2021/11/23 12:22:21;;;;;;;3.60;3.30;;;;;;;;;;4930240;28;20050;-64
2021/11/23 12:24:52;;;;;;;3.90;3.40;;;;;;;;;;4961228;28;20450;-64
2021/11/23 12:27:18;;;;;;;4.80;3.83;;;;;;;;;;4959409;28;20511;-64
2021/11/23 12:29:48;;;;;;;3.47;3.17;;;;;;;;;;4961131;28;20644;-64
2021/11/23 12:32:17;;;;;;;5.90;3.58;;;;;;;;;;4959130;28;20059;-64
2021/11/23 12:34:51;;;;;;;3.47;3.15;;;;;;;;;;4961394;28;20043;-64
2021/11/23 12:37:18;;;;;;;4.00;3.28;;;;;;;;;;4962268;28;20086;-64
2021/11/23 12:39:45;;;;;;;3.95;3.28;;;;;;;;;;4959955;28;20059;-64
2021/11/23 12:42:16;;;;;;;3.38;3.08;;;;;;;;;;4963606;28;20051;-65
2021/11/23 12:44:44;;;;;;;3.53;2.78;;;;;;;;;;4953152;28;20601;-71
2021/11/23 12:47:20;;;;;;;3.60;2.88;;;;;;;;;;4961962;28;20051;-68
2021/11/23 12:49:55;;;;;;;3.40;3.00;;;;;;;;;;4962663;28;20055;-67
2021/11/23 12:52:25;;;;;;;3.20;2.90;;;;;;;;;;4965157;28;20073;-68
2021/11/23 12:54:53;;;;;;;6.88;2.78;;;;;;;;;;4966203;28;20070;-68
2021/11/23 12:57:21;;;;;;;5.20;2.75;;;;;;;;;;4963420;28;20058;-65
2021/11/23 12:59:52;;;;;;;3.08;2.83;;;;;;;;;;4963016;28;20051;-65
2021/11/23 13:02:56;;;;;;;3.40;2.88;;;;;;;;;;4960673;28;20059;-65
2021/11/23 13:05:32;;;;;;;2.70;2.47;;;;;;;;;;4963323;28;20078;-66
2021/11/23 13:08:14;;;;;;;4.35;2.70;;;;;;;;;;4961452;28;20058;-67
2021/11/23 13:10:45;;;;;;;2.58;1.90;;;;;;;;;;4962299;28;20047;-65
2021/11/23 13:13:14;;;;;;;2.40;2.10;;;;;;;;;;4962671;28;20095;-65
2021/11/23 13:15:46;;;;;;;2.63;2.20;;;;;;;;;;4960948;28;20043;-66
2021/11/23 13:18:21;;;;;;;3.13;2.40;;;;;;;;;;4962208;28;20043;-65
2021/11/23 13:20:56;;;;;;;2.33;2.13;;;;;;;;;;4961600;28;20126;-65
2021/11/23 13:23:31;;;;;;;3.00;2.03;;;;;;;;;;4960278;28;20104;-66
2021/11/23 13:26:14;;;;;;;3.22;2.28;;;;;;;;;;4962419;28;20099;-66
2021/11/23 13:28:52;;;;;;;3.22;1.95;;;;;;;;;;4964708;28;20051;-65
2021/11/23 13:31:25;;;;;;;2.75;2.25;;;;;;;;;;4960801;28;20051;-66
2021/11/23 13:33:56;;;;;;;3.03;1.83;;;;;;;;;;4961080;28;20051;-65
2021/11/23 13:36:28;;;;;;;3.35;2.30;;;;;;;;;;4967267;28;20059;-66
2021/11/23 13:39:07;;;;;;;2.38;1.92;;;;;;;;;;4960153;28;20191;-64
2021/11/23 13:41:40;;;;;;;2.47;1.75;;;;;;;;;;4961025;28;20054;-69
2021/11/23 13:44:15;;;;;;;2.08;1.88;;;;;;;;;;4962247;28;20078;-69
2021/11/23 13:47:02;;;;;;;3.05;1.85;;;;;;;;;;4960433;28;20051;-68
2021/11/23 13:49:38;;;;;;;2.55;1.92;;;;;;;;;;4949428;28;20110;-69
2021/11/23 13:52:08;;;;;;;2.55;2.08;;;;;;;;;;4961695;28;20108;-68
2021/11/23 13:54:49;;;;;;;1.77;1.63;;;;;;;;;;4960351;28;20105;-69
2021/11/23 13:57:42;;;;;;;3.45;1.90;;;;;;;;;;4966104;28;20568;-66
2021/11/23 14:00:23;;;;;;;;;;;;;;;;;;4963801;28;20109;-66
2021/11/23 14:02:50;;;;;;;2.30;1.75;;;;;;;;;;4943648;28;19926;-68
2021/11/23 14:05:35;;;;;;;2.33;1.95;;;;;;;;;;4961056;28;20043;-65
2021/11/23 14:08:04;;;;;;;2.03;1.83;;;;;;;;;;4963967;28;20055;-65
2021/11/23 14:10:40;;;;;;;2.30;1.70;;;;;;;;;;4965674;28;20104;-65
2021/11/23 14:13:11;;;;;;;2.70;2.13;;;;;;;;;;4961324;28;20051;-64
2021/11/23 14:15:40;;;;;;;2.75;1.83;;;;;;;;;;4959360;28;20059;-66
2021/11/23 14:18:19;;;;;;;3.20;1.88;;;;;;;;;;4961219;28;20128;-65
2021/11/23 14:20:49;;;;;;;2.58;1.77;;;;;;;;;;4960301;28;20201;-65
2021/11/23 14:23:18;;;;;;;2.05;1.80;;;;;;;;;;4959256;28;20120;-65
2021/11/23 14:25:57;;;;;;;3.35;1.90;;;;;;;;;;4963738;28;20211;-65
2021/11/23 14:28:23;;;;;;;2.30;2.10;;;;;;;;;;4943898;28;20055;-66
2021/11/23 14:30:50;;;;;;;3.13;2.40;;;;;;;;;;4960551;28;20109;-64
2021/11/23 14:33:16;;;;;;;6.00;2.00;;;;;;;;;;4959976;28;20051;-64
2021/11/23 14:35:43;;;;;;;3.05;2.35;;;;;;;;;;4960512;28;20047;-65
2021/11/23 14:38:10;;;;;;;2.70;2.15;;;;;;;;;;4960000;28;20051;-65
2021/11/23 14:40:36;;;;;;;5.00;2.03;;;;;;;;;;4959104;28;20051;-65
2021/11/23 14:43:03;;;;;;;3.95;1.80;;;;;;;;;;4960489;28;20109;-64
2021/11/23 14:45:30;;;;;;;3.03;1.90;;;;;;;;;;4958863;28;20054;-66
2021/11/23 14:47:57;;;;;;;3.92;2.30;;;;;;;;;;4963562;28;20065;-65